Time;durP1;ratioP1;P1;durP2;ratioP2;P2;SDS_P1;SDS_P2;PMS_P1;PMS_P2;Temp;Humidity;BMP_temperature;BMP_pressure;BME280_temperature;BME280_humidity;BME280_pressure;Samples;Min_cycle;Max_cycle;Signal;HPM_P1;HPM_P2
2023/08/21 00:00:15;;;;;;;12.30;9.32;;;;;;;;;;5001658;28;20050;-77
2023/08/21 00:03:01;;;;;;;10.75;9.40;;;;;;;;;;5011332;28;20045;-77
2023/08/21 00:05:46;;;;;;;13.43;9.93;;;;;;;;;;5010611;28;20046;-79
2023/08/21 00:08:32;;;;;;;13.43;9.98;;;;;;;;;;5010918;28;20037;-76
2023/08/21 00:11:17;;;;;;;13.77;10.30;;;;;;;;;;5010793;28;20489;-78
2023/08/21 00:14:03;;;;;;;16.92;10.32;;;;;;;;;;5011096;28;20046;-79
2023/08/21 00:16:49;;;;;;;14.07;10.05;;;;;;;;;;5010833;28;20046;-78
2023/08/21 00:19:34;;;;;;;16.50;10.77;;;;;;;;;;5010232;28;20046;-80
2023/08/21 00:22:20;;;;;;;12.65;10.30;;;;;;;;;;4995766;28;20033;-79
2023/08/21 00:25:06;;;;;;;16.60;10.32;;;;;;;;;;5010701;28;20045;-78
2023/08/21 00:27:51;;;;;;;14.18;9.85;;;;;;;;;;5010461;28;20042;-79
2023/08/21 00:30:37;;;;;;;13.15;10.32;;;;;;;;;;5001807;28;20038;-78
2023/08/21 00:33:22;;;;;;;14.07;10.60;;;;;;;;;;5001458;28;20053;-78
2023/08/21 00:36:07;;;;;;;16.45;10.52;;;;;;;;;;5002562;28;20042;-76
2023/08/21 00:38:53;;;;;;;12.18;10.80;;;;;;;;;;5002578;28;20046;-78
2023/08/21 00:41:39;;;;;;;14.63;11.05;;;;;;;;;;5009309;28;20050;-77
2023/08/21 00:44:24;;;;;;;12.15;10.18;;;;;;;;;;5009265;28;20050;-79
2023/08/21 00:47:10;;;;;;;13.13;10.65;;;;;;;;;;5000761;28;20038;-78
2023/08/21 00:49:56;;;;;;;12.63;10.77;;;;;;;;;;5001419;28;20493;-77
2023/08/21 00:52:44;;;;;;;11.60;10.40;;;;;;;;;;5009166;28;20045;-79
2023/08/21 00:55:31;;;;;;;12.13;9.98;;;;;;;;;;5008957;28;20042;-78
2023/08/21 00:58:17;;;;;;;14.88;10.20;;;;;;;;;;5009281;28;20045;-80
2023/08/21 01:01:04;;;;;;;14.65;10.18;;;;;;;;;;5009087;28;20393;-77
2023/08/21 01:03:50;;;;;;;11.60;9.35;;;;;;;;;;5000760;28;20042;-79
2023/08/21 01:06:35;;;;;;;12.23;9.75;;;;;;;;;;5012539;28;20053;-80
2023/08/21 01:09:36;;;;;;;11.95;10.15;;;;;;;;;;5008891;28;20397;-78
2023/08/21 01:12:35;;;;;;;12.77;10.70;;;;;;;;;;5010613;28;20061;-79
2023/08/21 01:15:20;;;;;;;13.77;10.43;;;;;;;;;;5009589;28;20034;-79
2023/08/21 01:18:08;;;;;;;13.70;10.77;;;;;;;;;;5001764;28;20053;-78
2023/08/21 01:20:54;;;;;;;17.50;10.52;;;;;;;;;;5001772;28;20045;-79
2023/08/21 01:23:42;;;;;;;11.95;10.30;;;;;;;;;;5010127;28;20053;-77
2023/08/21 01:26:27;;;;;;;13.73;10.38;;;;;;;;;;5009304;28;20050;-77
2023/08/21 01:29:13;;;;;;;14.00;10.68;;;;;;;;;;5010155;28;20049;-79
2023/08/21 01:32:06;;;;;;;11.52;10.20;;;;;;;;;;5001942;28;20038;-78
2023/08/21 01:34:55;;;;;;;16.05;11.15;;;;;;;;;;5009648;28;20061;-76
2023/08/21 01:37:42;;;;;;;11.88;10.75;;;;;;;;;;5016358;28;20057;-75
2023/08/21 01:40:27;;;;;;;13.18;11.63;;;;;;;;;;5010098;28;20038;-78
2023/08/21 01:43:13;;;;;;;13.15;11.00;;;;;;;;;;5010087;28;20409;-77
2023/08/21 01:45:58;;;;;;;13.35;9.88;;;;;;;;;;5013177;28;20038;-80
2023/08/21 01:48:44;;;;;;;11.52;10.25;;;;;;;;;;5013497;28;20042;-79
2023/08/21 01:51:29;;;;;;;12.43;10.25;;;;;;;;;;5013845;28;20054;-78
2023/08/21 01:54:15;;;;;;;16.15;10.40;;;;;;;;;;5013438;28;20042;-78
2023/08/21 01:57:00;;;;;;;13.80;11.20;;;;;;;;;;5013385;28;20484;-78
2023/08/21 01:59:45;;;;;;;11.70;10.50;;;;;;;;;;5004663;28;20058;-79
2023/08/21 02:02:31;;;;;;;13.30;11.23;;;;;;;;;;5004895;28;20057;-80
2023/08/21 02:05:16;;;;;;;13.13;11.13;;;;;;;;;;5013204;28;20042;-77
2023/08/21 02:08:02;;;;;;;13.65;11.32;;;;;;;;;;5013678;28;20416;-80
2023/08/21 02:10:51;;;;;;;13.95;11.00;;;;;;;;;;5004914;28;20045;-78
2023/08/21 02:13:37;;;;;;;17.13;11.82;;;;;;;;;;5012805;28;20497;-79
2023/08/21 02:16:22;;;;;;;12.15;10.93;;;;;;;;;;5004593;28;20050;-80
2023/08/21 02:19:08;;;;;;;14.00;11.20;;;;;;;;;;5004173;28;20041;-78
2023/08/21 02:21:54;;;;;;;12.38;10.95;;;;;;;;;;5004860;28;20485;-77
2023/08/21 02:24:39;;;;;;;12.93;10.77;;;;;;;;;;5012364;28;20397;-79
2023/08/21 02:27:25;;;;;;;14.35;11.00;;;;;;;;;;5012837;28;20481;-80
2023/08/21 02:30:11;;;;;;;13.65;10.80;;;;;;;;;;5012772;28;20037;-78
2023/08/21 02:32:56;;;;;;;14.43;10.98;;;;;;;;;;5012323;28;20046;-79
2023/08/21 02:35:42;;;;;;;13.35;10.73;;;;;;;;;;5012023;28;20034;-78
2023/08/21 02:38:27;;;;;;;13.07;11.13;;;;;;;;;;5004318;28;20057;-78
2023/08/21 02:41:12;;;;;;;12.32;11.02;;;;;;;;;;5013064;28;20034;-79
2023/08/21 02:43:57;;;;;;;16.88;11.20;;;;;;;;;;5012714;28;20050;-78
2023/08/21 02:46:43;;;;;;;14.18;11.30;;;;;;;;;;5003424;28;20049;-77
2023/08/21 02:49:28;;;;;;;14.52;11.30;;;;;;;;;;5004594;28;20042;-78
2023/08/21 02:52:14;;;;;;;12.88;10.68;;;;;;;;;;5003959;28;20041;-78
2023/08/21 02:54:59;;;;;;;12.82;11.45;;;;;;;;;;5012945;28;20492;-77
2023/08/21 02:57:44;;;;;;;15.43;11.60;;;;;;;;;;5002982;28;20412;-77
2023/08/21 03:00:30;;;;;;;14.30;11.85;;;;;;;;;;5012340;28;20041;-78
2023/08/21 03:03:15;;;;;;;16.52;11.70;;;;;;;;;;5012503;28;20042;-77
2023/08/21 03:06:02;;;;;;;13.35;11.95;;;;;;;;;;5011767;28;20046;-80
2023/08/21 03:08:47;;;;;;;15.63;11.57;;;;;;;;;;5010819;28;20042;-78
2023/08/21 03:11:32;;;;;;;12.85;10.65;;;;;;;;;;5003648;28;20041;-79
2023/08/21 03:14:18;;;;;;;16.15;11.30;;;;;;;;;;5011429;28;20046;-77
2023/08/21 03:17:03;;;;;;;13.20;11.80;;;;;;;;;;5003897;28;20046;-78
2023/08/21 03:19:49;;;;;;;13.70;12.18;;;;;;;;;;5003433;28;20053;-79
2023/08/21 03:22:35;;;;;;;14.77;12.07;;;;;;;;;;5011696;28;20042;-79
2023/08/21 03:30:49;;;;;;;15.65;12.57;;;;;;;;;;5067105;27;1357370;-74
2023/08/21 03:33:34;;;;;;;15.30;12.70;;;;;;;;;;5098181;28;20063;-75
2023/08/21 03:36:20;;;;;;;17.13;12.18;;;;;;;;;;5096709;28;20040;-75
2023/08/21 03:39:07;;;;;;;17.52;12.85;;;;;;;;;;5097088;28;20036;-74
2023/08/21 03:41:56;;;;;;;20.20;12.63;;;;;;;;;;5096579;28;20048;-74
2023/08/21 03:44:42;;;;;;;18.80;13.27;;;;;;;;;;5096948;28;20044;-75
2023/08/21 03:47:27;;;;;;;14.27;12.15;;;;;;;;;;5091205;28;20396;-74
2023/08/21 03:50:17;;;;;;;16.33;12.68;;;;;;;;;;5095299;28;20040;-75
2023/08/21 03:53:02;;;;;;;17.20;12.45;;;;;;;;;;5096746;28;20044;-75
2023/08/21 03:55:48;;;;;;;17.25;12.57;;;;;;;;;;5096331;28;20052;-75
2023/08/21 03:58:33;;;;;;;14.95;12.18;;;;;;;;;;5090961;28;20052;-75
2023/08/21 04:01:19;;;;;;;16.67;12.43;;;;;;;;;;5097555;28;20044;-74
2023/08/21 04:04:05;;;;;;;17.15;12.95;;;;;;;;;;5096405;28;20048;-76
2023/08/21 04:06:50;;;;;;;17.73;12.73;;;;;;;;;;5096406;28;20044;-75
2023/08/21 04:09:35;;;;;;;16.38;12.52;;;;;;;;;;5090173;28;20037;-75
2023/08/21 04:12:20;;;;;;;17.90;13.43;;;;;;;;;;5090700;28;20048;-75
2023/08/21 04:15:06;;;;;;;18.48;13.07;;;;;;;;;;5096106;28;20044;-75
2023/08/21 04:17:52;;;;;;;21.52;12.82;;;;;;;;;;5096039;28;20484;-75
2023/08/21 04:20:38;;;;;;;17.92;12.35;;;;;;;;;;5090360;28;20044;-73
2023/08/21 04:23:26;;;;;;;17.13;12.55;;;;;;;;;;5096158;28;20048;-75
2023/08/21 04:26:11;;;;;;;17.52;12.63;;;;;;;;;;5095978;28;20044;-76
2023/08/21 04:28:56;;;;;;;15.93;11.75;;;;;;;;;;5093672;28;20040;-75
2023/08/21 04:31:41;;;;;;;19.08;11.45;;;;;;;;;;5095648;28;20032;-76
2023/08/21 04:34:27;;;;;;;13.23;11.60;;;;;;;;;;5096179;28;20040;-76
2023/08/21 04:37:12;;;;;;;13.48;11.35;;;;;;;;;;5095661;28;20488;-76
2023/08/21 04:39:58;;;;;;;18.30;11.68;;;;;;;;;;5095547;28;20397;-76
2023/08/21 04:42:44;;;;;;;20.25;12.57;;;;;;;;;;5081872;28;20048;-75
2023/08/21 04:45:29;;;;;;;17.02;11.10;;;;;;;;;;5081766;28;20045;-76
2023/08/21 04:48:15;;;;;;;17.75;11.10;;;;;;;;;;5082312;28;20040;-75
2023/08/21 04:51:00;;;;;;;15.38;11.40;;;;;;;;;;5082557;28;20056;-75
2023/08/21 04:53:45;;;;;;;16.13;10.82;;;;;;;;;;5081779;28;20040;-75
2023/08/21 04:56:35;;;;;;;14.30;11.45;;;;;;;;;;5081857;28;20044;-76
2023/08/21 04:59:22;;;;;;;15.23;11.48;;;;;;;;;;5080757;28;20334;-75
2023/08/21 05:02:08;;;;;;;12.45;10.65;;;;;;;;;;5081628;28;20400;-76
2023/08/21 05:04:54;;;;;;;16.65;10.82;;;;;;;;;;5081682;28;20048;-75
2023/08/21 05:07:39;;;;;;;16.88;10.70;;;;;;;;;;5081564;28;20048;-75
2023/08/21 05:10:25;;;;;;;21.00;9.73;;;;;;;;;;5081394;28;20041;-76
2023/08/21 05:13:10;;;;;;;11.90;10.00;;;;;;;;;;5081491;28;20032;-76
2023/08/21 05:15:57;;;;;;;12.30;9.23;;;;;;;;;;5081490;28;20040;-75
2023/08/21 05:18:44;;;;;;;13.35;9.68;;;;;;;;;;5081599;28;20048;-75
2023/08/21 05:21:30;;;;;;;10.98;8.77;;;;;;;;;;5081336;28;20041;-75
2023/08/21 05:24:16;;;;;;;12.85;8.38;;;;;;;;;;5081453;28;20400;-75
2023/08/21 05:27:07;;;;;;;13.73;9.90;;;;;;;;;;5081149;28;20036;-75
2023/08/21 05:29:53;;;;;;;14.15;8.43;;;;;;;;;;5075285;28;20045;-75
2023/08/21 05:32:38;;;;;;;15.70;8.57;;;;;;;;;;5081164;28;20040;-75
2023/08/21 05:35:24;;;;;;;17.05;8.98;;;;;;;;;;5081153;28;20481;-75
2023/08/21 05:38:11;;;;;;;14.13;9.30;;;;;;;;;;5079965;28;20481;-75
2023/08/21 05:40:57;;;;;;;14.68;9.60;;;;;;;;;;5076481;28;20041;-75
2023/08/21 05:43:43;;;;;;;14.68;8.52;;;;;;;;;;5081202;28;20049;-75
2023/08/21 05:46:30;;;;;;;14.02;8.55;;;;;;;;;;5081246;28;20044;-75
2023/08/21 05:49:15;;;;;;;11.57;8.32;;;;;;;;;;5080573;28;20041;-75
2023/08/21 05:52:01;;;;;;;16.20;9.57;;;;;;;;;;5079358;28;20067;-75
2023/08/21 05:54:46;;;;;;;13.15;8.15;;;;;;;;;;5080920;28;20040;-75
2023/08/21 05:57:32;;;;;;;13.55;8.75;;;;;;;;;;5080745;28;20048;-75
2023/08/21 06:00:17;;;;;;;14.43;8.40;;;;;;;;;;5080071;28;20041;-74
2023/08/21 06:03:03;;;;;;;16.00;10.05;;;;;;;;;;5074599;28;20040;-75
2023/08/21 06:06:19;;;;;;;14.95;9.40;;;;;;;;;;5079344;28;20056;-75
2023/08/21 06:09:04;;;;;;;14.02;9.80;;;;;;;;;;5079487;28;20049;-75
2023/08/21 06:11:50;;;;;;;14.52;9.50;;;;;;;;;;5080384;28;20048;-74
2023/08/21 06:14:35;;;;;;;16.08;8.45;;;;;;;;;;5073682;28;20040;-74
2023/08/21 06:17:22;;;;;;;12.15;8.32;;;;;;;;;;5077725;28;20404;-76
2023/08/21 06:20:11;;;;;;;25.98;20.77;;;;;;;;;;5072049;28;20052;-75
2023/08/21 06:22:56;;;;;;;61.65;52.05;;;;;;;;;;5071820;28;20401;-74
2023/08/21 06:25:44;;;;;;;12.18;8.88;;;;;;;;;;5077265;28;20048;-75
2023/08/21 06:28:30;;;;;;;13.63;8.80;;;;;;;;;;5071599;28;20048;-74
2023/08/21 06:31:16;;;;;;;15.43;10.45;;;;;;;;;;5031524;28;20057;-75
2023/08/21 06:34:01;;;;;;;37.20;28.13;;;;;;;;;;5037825;28;20050;-75
2023/08/21 06:36:47;;;;;;;26.23;21.38;;;;;;;;;;5039741;28;20482;-75
2023/08/21 06:39:32;;;;;;;10.52;8.85;;;;;;;;;;5038664;28;20049;-74
2023/08/21 06:42:18;;;;;;;14.57;8.73;;;;;;;;;;5034151;28;20053;-74
2023/08/21 06:45:07;;;;;;;11.75;7.90;;;;;;;;;;5039541;28;20041;-74
2023/08/21 06:47:53;;;;;;;10.60;8.63;;;;;;;;;;5033910;28;20045;-75
2023/08/21 06:50:39;;;;;;;12.05;8.55;;;;;;;;;;5033252;28;20053;-75
2023/08/21 06:53:24;;;;;;;12.27;8.65;;;;;;;;;;5040200;28;20045;-74
2023/08/21 06:56:10;;;;;;;11.85;8.63;;;;;;;;;;5033670;28;20053;-75
2023/08/21 06:58:55;;;;;;;11.52;8.50;;;;;;;;;;5040437;28;20049;-76
2023/08/21 07:01:41;;;;;;;13.70;9.15;;;;;;;;;;5019350;28;20045;-75
2023/08/21 07:04:27;;;;;;;10.05;8.30;;;;;;;;;;5032957;28;20053;-76
2023/08/21 07:07:12;;;;;;;13.32;8.70;;;;;;;;;;5033520;28;20470;-74
2023/08/21 07:09:58;;;;;;;13.48;8.73;;;;;;;;;;5033537;28;20042;-75
2023/08/21 07:12:44;;;;;;;12.13;8.77;;;;;;;;;;5033516;28;20041;-75
2023/08/21 07:15:30;;;;;;;13.02;8.60;;;;;;;;;;5033356;28;20045;-75
2023/08/21 07:18:15;;;;;;;11.30;9.00;;;;;;;;;;5031990;28;20037;-75
2023/08/21 07:21:04;;;;;;;12.20;9.10;;;;;;;;;;5033125;28;20053;-75
2023/08/21 07:23:49;;;;;;;12.38;9.05;;;;;;;;;;5033113;28;20033;-75
2023/08/21 07:26:34;;;;;;;11.10;8.55;;;;;;;;;;5032688;28;20486;-75
2023/08/21 07:29:20;;;;;;;11.52;8.70;;;;;;;;;;5043905;28;20040;-75
2023/08/21 07:32:05;;;;;;;12.57;7.82;;;;;;;;;;5073251;28;20037;-75
2023/08/21 07:34:54;;;;;;;15.00;8.95;;;;;;;;;;5073253;28;20044;-75
2023/08/21 07:37:43;;;;;;;18.95;9.88;;;;;;;;;;5073606;28;20381;-75
2023/08/21 07:40:28;;;;;;;27.75;10.77;;;;;;;;;;5072498;28;20048;-74
2023/08/21 07:43:14;;;;;;;11.70;8.45;;;;;;;;;;5073167;28;20044;-73
2023/08/21 07:46:09;;;;;;;13.82;8.52;;;;;;;;;;5073173;28;20045;-75
2023/08/21 07:48:54;;;;;;;13.07;8.43;;;;;;;;;;5073503;28;20396;-73
2023/08/21 07:51:39;;;;;;;12.15;8.68;;;;;;;;;;5073275;28;20048;-75
2023/08/21 07:54:25;;;;;;;11.88;8.73;;;;;;;;;;5073077;28;20048;-75
2023/08/21 07:57:11;;;;;;;10.70;8.23;;;;;;;;;;5073227;28;20048;-75
2023/08/21 07:59:56;;;;;;;12.80;9.05;;;;;;;;;;5073279;28;20045;-75
2023/08/21 08:02:43;;;;;;;17.95;8.70;;;;;;;;;;5073011;28;20044;-75
2023/08/21 08:05:28;;;;;;;14.95;9.30;;;;;;;;;;5073097;28;20489;-74
2023/08/21 08:08:18;;;;;;;11.68;9.70;;;;;;;;;;5079608;28;20049;-75
2023/08/21 08:11:04;;;;;;;13.00;9.90;;;;;;;;;;5072760;28;20044;-75
2023/08/21 08:13:50;;;;;;;16.05;10.80;;;;;;;;;;5073382;28;20037;-75
2023/08/21 08:16:35;;;;;;;21.58;10.60;;;;;;;;;;5074995;28;20037;-75
2023/08/21 08:19:21;;;;;;;15.48;10.48;;;;;;;;;;5077124;28;20045;-73
2023/08/21 08:22:06;;;;;;;13.70;9.20;;;;;;;;;;5076614;28;20048;-73
2023/08/21 08:24:51;;;;;;;19.23;9.45;;;;;;;;;;5076752;28;20048;-72
2023/08/21 08:27:36;;;;;;;12.85;9.82;;;;;;;;;;5076514;28;20045;-72
2023/08/21 08:30:23;;;;;;;18.05;9.43;;;;;;;;;;5075062;28;20045;-74
2023/08/21 08:33:11;;;;;;;10.82;8.77;;;;;;;;;;5076559;28;20040;-74
2023/08/21 08:35:56;;;;;;;12.52;8.43;;;;;;;;;;5076324;28;20044;-73
2023/08/21 08:38:43;;;;;;;12.13;9.25;;;;;;;;;;5076784;28;20218;-75
2023/08/21 08:41:51;;;;;;;13.07;8.40;;;;;;;;;;5076474;28;20049;-74
2023/08/21 08:44:38;;;;;;;9.57;8.50;;;;;;;;;;5082993;28;20044;-74
2023/08/21 08:47:24;;;;;;;12.38;8.57;;;;;;;;;;5076316;28;20040;-75
2023/08/21 08:50:10;;;;;;;17.30;8.70;;;;;;;;;;5076218;28;20040;-73
2023/08/21 08:52:57;;;;;;;23.00;9.05;;;;;;;;;;5075959;28;20385;-73
2023/08/21 08:55:42;;;;;;;14.75;8.45;;;;;;;;;;5076266;28;20396;-73
2023/08/21 08:58:29;;;;;;;10.90;8.65;;;;;;;;;;5075961;28;20048;-74
2023/08/21 09:01:14;;;;;;;12.13;9.02;;;;;;;;;;5075052;28;20084;-73
2023/08/21 09:04:00;;;;;;;12.60;8.00;;;;;;;;;;5073024;28;20044;-73
2023/08/21 09:06:45;;;;;;;12.95;8.75;;;;;;;;;;5075245;28;20045;-74
2023/08/21 09:09:40;;;;;;;12.40;8.43;;;;;;;;;;5081842;28;20041;-73
2023/08/21 09:12:25;;;;;;;11.63;8.25;;;;;;;;;;5075928;28;20048;-73
2023/08/21 09:15:11;;;;;;;14.10;8.30;;;;;;;;;;5075684;28;20048;-74
2023/08/21 09:17:57;;;;;;;13.25;8.90;;;;;;;;;;5074649;28;20053;-74
2023/08/21 09:20:42;;;;;;;12.20;8.32;;;;;;;;;;5075914;28;20056;-74
2023/08/21 09:23:28;;;;;;;11.82;7.75;;;;;;;;;;5075836;28;20041;-74
2023/08/21 09:26:20;;;;;;;13.70;8.75;;;;;;;;;;5075467;28;20059;-73
2023/08/21 09:29:06;;;;;;;13.98;8.60;;;;;;;;;;5074985;28;20052;-74
2023/08/21 09:31:56;;;;;;;10.75;8.18;;;;;;;;;;5074698;28;20508;-74
2023/08/21 09:34:41;;;;;;;13.82;8.48;;;;;;;;;;5075686;28;20044;-73
2023/08/21 09:37:29;;;;;;;12.18;9.20;;;;;;;;;;5075606;28;20040;-73
2023/08/21 09:40:17;;;;;;;12.65;8.63;;;;;;;;;;5075015;28;20036;-74
2023/08/21 09:43:03;;;;;;;13.35;8.80;;;;;;;;;;5075389;28;20040;-73
2023/08/21 09:45:55;;;;;;;11.57;7.82;;;;;;;;;;5075083;28;20393;-73
2023/08/21 09:48:41;;;;;;;10.57;8.38;;;;;;;;;;5075423;28;20044;-73
2023/08/21 09:51:27;;;;;;;9.93;7.78;;;;;;;;;;5073808;28;20037;-73
2023/08/21 09:54:13;;;;;;;14.32;8.27;;;;;;;;;;5075033;28;20041;-74
2023/08/21 09:57:03;;;;;;;14.43;8.02;;;;;;;;;;5074973;28;20041;-73
2023/08/21 09:59:54;;;;;;;11.30;8.13;;;;;;;;;;5074678;28;20485;-74
2023/08/21 10:02:45;;;;;;;12.48;8.23;;;;;;;;;;5074932;28;20048;-73
2023/08/21 10:05:37;;;;;;;16.85;7.68;;;;;;;;;;5074964;28;20473;-74
2023/08/21 10:08:25;;;;;;;12.23;7.50;;;;;;;;;;5074534;28;20052;-73
2023/08/21 10:11:11;;;;;;;9.00;7.75;;;;;;;;;;5074567;28;20052;-73
2023/08/21 10:13:57;;;;;;;14.48;7.68;;;;;;;;;;5074257;28;20049;-73
2023/08/21 10:16:43;;;;;;;9.63;7.00;;;;;;;;;;5074609;28;20048;-73
2023/08/21 10:19:32;;;;;;;11.07;7.25;;;;;;;;;;5074464;28;20044;-74
2023/08/21 10:22:44;;;;;;;8.38;6.82;;;;;;;;;;5073692;28;20489;-74
2023/08/21 10:25:29;;;;;;;11.30;7.60;;;;;;;;;;5073418;28;20041;-73
2023/08/21 10:28:14;;;;;;;12.18;7.03;;;;;;;;;;5074143;28;20481;-73
2023/08/21 10:31:25;;;;;;;12.30;6.63;;;;;;;;;;5075654;28;20048;-72
2023/08/21 10:34:13;;;;;;;9.40;7.10;;;;;;;;;;5073815;28;20036;-74
2023/08/21 10:37:04;;;;;;;9.20;6.82;;;;;;;;;;5074159;28;20040;-74
2023/08/21 10:39:56;;;;;;;9.02;6.93;;;;;;;;;;5073614;28;20052;-74
2023/08/21 10:42:42;;;;;;;12.10;6.82;;;;;;;;;;5073870;28;20044;-74
2023/08/21 10:45:27;;;;;;;13.15;7.43;;;;;;;;;;5073763;28;20040;-74
2023/08/21 10:48:13;;;;;;;10.13;7.18;;;;;;;;;;5072236;28;20049;-74
2023/08/21 10:51:07;;;;;;;7.70;6.88;;;;;;;;;;5073924;28;20049;-74
2023/08/21 10:53:52;;;;;;;13.23;7.55;;;;;;;;;;5073246;28;20041;-74
2023/08/21 10:56:38;;;;;;;8.13;7.30;;;;;;;;;;5072777;28;20500;-73
2023/08/21 10:59:23;;;;;;;9.80;7.45;;;;;;;;;;5073637;28;20393;-74
2023/08/21 11:02:09;;;;;;;10.15;7.20;;;;;;;;;;5073705;28;20048;-74
2023/08/21 11:04:55;;;;;;;10.15;7.28;;;;;;;;;;5078660;28;20056;-73
2023/08/21 11:07:45;;;;;;;10.57;7.55;;;;;;;;;;5073923;28;20037;-73
2023/08/21 11:10:31;;;;;;;12.50;7.50;;;;;;;;;;5073426;28;20040;-74
2023/08/21 11:13:16;;;;;;;10.65;8.27;;;;;;;;;;5073375;28;20041;-74
2023/08/21 11:16:04;;;;;;;13.90;8.10;;;;;;;;;;5073482;28;20049;-74
2023/08/21 11:18:50;;;;;;;12.32;7.57;;;;;;;;;;5080028;28;20048;-74
2023/08/21 11:21:35;;;;;;;10.40;7.10;;;;;;;;;;5079101;28;20045;-74
2023/08/21 11:24:21;;;;;;;8.13;6.70;;;;;;;;;;5073302;28;20036;-73
2023/08/21 11:27:10;;;;;;;10.52;7.10;;;;;;;;;;5073715;28;20040;-74
2023/08/21 11:29:56;;;;;;;13.80;7.78;;;;;;;;;;5072678;28;20045;-72
2023/08/21 11:32:41;;;;;;;11.02;7.65;;;;;;;;;;5073216;28;20053;-73
2023/08/21 11:35:27;;;;;;;23.17;14.57;;;;;;;;;;5072505;28;20040;-72
2023/08/21 11:38:20;;;;;;;13.98;7.07;;;;;;;;;;5072580;28;20053;-74
2023/08/21 11:41:07;;;;;;;11.45;7.05;;;;;;;;;;5073080;28;20048;-74
2023/08/21 11:43:51;;;;;;;10.55;6.40;;;;;;;;;;5077703;28;20397;-74
2023/08/21 11:46:38;;;;;;;9.55;7.47;;;;;;;;;;5072370;28;20041;-72
2023/08/21 11:49:24;;;;;;;11.30;6.65;;;;;;;;;;5072990;28;20044;-72
2023/08/21 11:52:13;;;;;;;13.35;7.53;;;;;;;;;;5075054;28;20404;-73
2023/08/21 11:54:59;;;;;;;11.90;7.35;;;;;;;;;;5076980;28;20044;-74
2023/08/21 11:57:53;;;;;;;9.77;6.88;;;;;;;;;;5077387;28;20420;-73
2023/08/21 12:00:39;;;;;;;9.50;6.00;;;;;;;;;;5077149;28;20048;-74
2023/08/21 12:03:24;;;;;;;8.85;5.90;;;;;;;;;;5076853;28;20036;-73
2023/08/21 12:06:11;;;;;;;12.18;6.20;;;;;;;;;;5076265;28;20048;-74
2023/08/21 12:08:57;;;;;;;10.80;5.88;;;;;;;;;;5076644;28;20045;-74
2023/08/21 12:11:42;;;;;;;10.63;6.03;;;;;;;;;;5076470;28;20048;-73
2023/08/21 12:14:29;;;;;;;8.20;5.95;;;;;;;;;;5076137;28;20041;-73
2023/08/21 12:17:15;;;;;;;8.43;6.15;;;;;;;;;;5076391;28;20044;-73
2023/08/21 12:20:00;;;;;;;12.38;6.22;;;;;;;;;;5076673;28;20044;-73
2023/08/21 12:22:46;;;;;;;7.78;5.43;;;;;;;;;;5076366;28;20044;-73
2023/08/21 12:25:31;;;;;;;11.50;6.00;;;;;;;;;;5076406;28;20036;-73
2023/08/21 12:28:17;;;;;;;6.35;5.15;;;;;;;;;;5076017;28;20481;-73
2023/08/21 12:31:02;;;;;;;10.68;5.78;;;;;;;;;;5074506;28;20095;-74
2023/08/21 12:33:48;;;;;;;11.02;6.15;;;;;;;;;;5075557;28;20049;-75
2023/08/21 12:36:38;;;;;;;9.90;5.53;;;;;;;;;;5075862;28;20048;-74
2023/08/21 12:39:23;;;;;;;8.02;5.50;;;;;;;;;;5082070;28;20052;-73
2023/08/21 12:42:08;;;;;;;11.07;5.60;;;;;;;;;;5075534;28;20469;-73
2023/08/21 12:44:54;;;;;;;8.82;5.93;;;;;;;;;;5075413;28;20048;-73
2023/08/21 12:47:39;;;;;;;10.48;5.90;;;;;;;;;;5075416;28;20048;-74
2023/08/21 12:50:25;;;;;;;9.45;5.60;;;;;;;;;;5075620;28;20468;-74
2023/08/21 12:53:10;;;;;;;8.43;5.78;;;;;;;;;;5075606;28;20037;-74
2023/08/21 12:55:56;;;;;;;10.80;5.70;;;;;;;;;;5076021;28;20044;-73
2023/08/21 12:58:41;;;;;;;8.23;5.82;;;;;;;;;;5076146;28;20040;-73
2023/08/21 13:01:27;;;;;;;7.20;6.00;;;;;;;;;;5075467;28;20397;-73
2023/08/21 13:04:12;;;;;;;11.73;5.57;;;;;;;;;;5075651;28;20048;-73
2023/08/21 13:06:58;;;;;;;13.93;6.38;;;;;;;;;;5075688;28;20389;-73
2023/08/21 13:09:43;;;;;;;9.63;5.57;;;;;;;;;;5066802;28;20497;-73
2023/08/21 13:12:28;;;;;;;9.60;5.68;;;;;;;;;;5074910;28;20128;-74
2023/08/21 13:15:14;;;;;;;9.57;6.43;;;;;;;;;;5075202;28;20477;-73
2023/08/21 13:17:59;;;;;;;11.90;5.88;;;;;;;;;;5074979;28;20044;-74
2023/08/21 13:20:45;;;;;;;9.57;5.43;;;;;;;;;;5075030;28;20045;-74
2023/08/21 13:23:33;;;;;;;9.68;5.38;;;;;;;;;;5075503;28;20481;-74
2023/08/21 13:26:19;;;;;;;8.05;5.47;;;;;;;;;;5075615;28;20044;-75
2023/08/21 13:29:07;;;;;;;7.43;5.30;;;;;;;;;;5081566;28;20056;-74
2023/08/21 13:31:52;;;;;;;9.80;5.85;;;;;;;;;;5075480;28;20048;-75
2023/08/21 13:34:38;;;;;;;9.35;5.70;;;;;;;;;;5075336;28;20048;-74
2023/08/21 13:37:24;;;;;;;7.65;6.05;;;;;;;;;;5075395;28;20044;-74
2023/08/21 13:40:14;;;;;;;8.50;6.15;;;;;;;;;;5074971;28;20040;-74
2023/08/21 13:43:00;;;;;;;6.43;5.63;;;;;;;;;;5075353;28;20041;-73
2023/08/21 13:45:45;;;;;;;6.78;5.72;;;;;;;;;;5073932;28;20045;-73
2023/08/21 13:48:32;;;;;;;7.43;5.80;;;;;;;;;;5075187;28;20041;-73
2023/08/21 13:51:16;;;;;;;13.85;6.70;;;;;;;;;;5073711;28;20044;-74
2023/08/21 13:54:02;;;;;;;9.05;6.50;;;;;;;;;;5081839;28;20049;-74
2023/08/21 13:56:48;;;;;;;9.00;5.97;;;;;;;;;;5080303;28;20474;-75
2023/08/21 13:59:34;;;;;;;9.40;5.63;;;;;;;;;;5074787;28;20044;-77
2023/08/21 14:02:19;;;;;;;7.78;5.57;;;;;;;;;;5081076;28;20041;-73
2023/08/21 14:05:04;;;;;;;8.38;5.38;;;;;;;;;;5073625;28;20053;-75
2023/08/21 14:07:50;;;;;;;13.48;6.10;;;;;;;;;;5081401;28;20048;-75
2023/08/21 14:10:36;;;;;;;9.70;6.50;;;;;;;;;;5075291;28;20462;-75
2023/08/21 14:13:21;;;;;;;11.25;6.43;;;;;;;;;;5073685;28;20045;-74
2023/08/21 14:16:07;;;;;;;9.18;6.47;;;;;;;;;;5074711;28;20044;-75
2023/08/21 14:18:52;;;;;;;8.80;5.93;;;;;;;;;;5073973;28;20036;-75
2023/08/21 14:21:38;;;;;;;8.75;6.30;;;;;;;;;;5074152;28;20056;-75
2023/08/21 14:24:23;;;;;;;6.88;6.18;;;;;;;;;;5074594;28;20048;-75
2023/08/21 14:27:09;;;;;;;8.60;6.15;;;;;;;;;;5080939;28;20044;-75
2023/08/21 14:29:55;;;;;;;8.60;6.45;;;;;;;;;;5080393;28;20404;-74
2023/08/21 14:32:40;;;;;;;7.85;6.32;;;;;;;;;;5074069;28;20049;-74
2023/08/21 14:35:30;;;;;;;10.30;6.82;;;;;;;;;;5074609;28;20044;-75
2023/08/21 14:38:24;;;;;;;11.75;6.35;;;;;;;;;;5074297;28;20053;-74
2023/08/21 14:41:10;;;;;;;9.07;6.00;;;;;;;;;;5074137;28;20045;-73
2023/08/21 14:43:56;;;;;;;6.53;5.90;;;;;;;;;;5074419;28;20044;-75
2023/08/21 14:46:41;;;;;;;9.18;6.35;;;;;;;;;;5073296;28;20036;-75
2023/08/21 14:49:26;;;;;;;6.85;5.93;;;;;;;;;;5073747;28;20393;-72
2023/08/21 14:52:11;;;;;;;10.77;5.85;;;;;;;;;;5073373;28;20036;-75
2023/08/21 14:54:57;;;;;;;7.53;5.70;;;;;;;;;;5072773;28;20045;-75
2023/08/21 14:57:44;;;;;;;10.73;6.60;;;;;;;;;;5079410;28;20036;-75
2023/08/21 15:00:54;;;;;;;8.18;6.72;;;;;;;;;;5074015;28;20045;-75
2023/08/21 15:03:41;;;;;;;8.88;6.38;;;;;;;;;;5073436;28;20049;-72
2023/08/21 15:06:27;;;;;;;9.90;6.82;;;;;;;;;;5073127;28;20041;-74
2023/08/21 15:09:13;;;;;;;9.73;5.70;;;;;;;;;;5073281;28;20048;-73
2023/08/21 15:11:58;;;;;;;9.25;5.82;;;;;;;;;;5073211;28;20393;-74
2023/08/21 15:14:43;;;;;;;9.55;5.85;;;;;;;;;;5073071;28;20041;-73
2023/08/21 15:17:34;;;;;;;8.43;6.00;;;;;;;;;;5080170;28;20049;-74
2023/08/21 15:20:28;;;;;;;8.10;5.53;;;;;;;;;;5079921;28;20045;-73
2023/08/21 15:23:14;;;;;;;7.53;5.70;;;;;;;;;;5080037;28;20056;-74
2023/08/21 15:25:59;;;;;;;11.65;5.88;;;;;;;;;;5079889;28;20044;-75
2023/08/21 15:28:45;;;;;;;7.82;5.70;;;;;;;;;;5078053;28;20044;-74
2023/08/21 15:31:30;;;;;;;7.70;5.93;;;;;;;;;;5071957;28;20401;-74
2023/08/21 15:34:16;;;;;;;8.45;6.07;;;;;;;;;;5073346;28;20045;-75
2023/08/21 15:37:03;;;;;;;9.88;6.75;;;;;;;;;;5078689;28;20485;-75
2023/08/21 15:39:49;;;;;;;10.25;7.10;;;;;;;;;;5073206;28;20041;-73
2023/08/21 15:42:34;;;;;;;14.75;7.00;;;;;;;;;;5073288;28;20049;-73
2023/08/21 15:45:19;;;;;;;8.63;6.53;;;;;;;;;;5073353;28;20041;-74
2023/08/21 15:48:04;;;;;;;11.38;6.80;;;;;;;;;;5072037;28;20048;-75
2023/08/21 15:50:49;;;;;;;7.57;6.53;;;;;;;;;;5071843;28;20456;-74
2023/08/21 15:53:35;;;;;;;14.10;6.78;;;;;;;;;;5072894;28;20107;-74
2023/08/21 15:56:21;;;;;;;17.05;6.78;;;;;;;;;;5072102;28;20048;-73
2023/08/21 15:59:06;;;;;;;8.38;5.78;;;;;;;;;;5078761;28;20041;-73
2023/08/21 16:01:52;;;;;;;8.00;6.00;;;;;;;;;;5073538;28;20045;-74
2023/08/21 16:04:37;;;;;;;10.85;5.85;;;;;;;;;;5071845;28;20086;-73
2023/08/21 16:07:23;;;;;;;10.55;5.88;;;;;;;;;;5072631;28;20048;-74
2023/08/21 16:10:09;;;;;;;10.25;6.10;;;;;;;;;;5072912;28;20044;-73
2023/08/21 16:12:55;;;;;;;9.10;6.22;;;;;;;;;;5072693;28;20044;-72
2023/08/21 16:15:41;;;;;;;8.18;5.68;;;;;;;;;;5073059;28;20045;-72
2023/08/21 16:18:26;;;;;;;12.88;6.22;;;;;;;;;;5072864;28;20058;-72
2023/08/21 16:21:12;;;;;;;29.77;17.17;;;;;;;;;;5072956;28;20389;-74
2023/08/21 16:23:57;;;;;;;13.55;8.50;;;;;;;;;;5079598;28;20037;-73
2023/08/21 16:26:44;;;;;;;16.17;7.22;;;;;;;;;;5079562;28;20481;-75